createdAt,value
2023-05-21T00:25:35.972Z,11.69
2023-05-21T00:26:08.630Z,11.75
2023-05-21T00:26:41.244Z,11.75
2023-05-21T00:27:15.010Z,11.75
2023-05-21T00:27:47.628Z,11.75
2023-05-21T00:28:20.154Z,11.75
2023-05-21T00:28:53.603Z,11.75
2023-05-21T00:29:27.780Z,11.75
2023-05-21T00:30:01.717Z,11.75
2023-05-21T00:30:36.361Z,11.81
2023-05-21T00:31:08.953Z,11.81
2023-05-21T00:31:41.540Z,11.81
2023-05-21T00:32:15.254Z,11.81
2023-05-21T00:32:48.243Z,11.81
2023-05-21T00:33:21.848Z,11.88
2023-05-21T00:33:55.481Z,11.88
2023-05-21T00:34:29.605Z,11.88
2023-05-21T00:35:03.188Z,11.88
2023-05-21T00:35:35.954Z,11.88
2023-05-21T00:36:09.016Z,11.94
2023-05-21T00:36:45.474Z,11.94
2023-05-21T00:37:18.833Z,11.94
2023-05-21T00:37:52.104Z,11.94
2023-05-21T00:38:27.922Z,11.94
2023-05-21T00:39:00.486Z,11.94
2023-05-21T00:39:33.016Z,12.00
2023-05-21T00:40:07.787Z,12.00
2023-05-21T00:40:41.404Z,12.00
2023-05-21T00:41:14.366Z,12.00
2023-05-21T00:41:48.617Z,12.00
2023-05-21T00:42:27.236Z,12.00
2023-05-21T00:42:59.839Z,12.00
2023-05-21T00:43:32.627Z,12.00
2023-05-21T00:44:06.570Z,12.00
2023-05-21T00:44:39.324Z,12.00
2023-05-21T00:45:14.782Z,12.00
2023-05-21T00:45:48.608Z,12.00
2023-05-21T00:46:22.392Z,12.00
2023-05-21T00:46:54.982Z,12.06
2023-05-21T00:47:29.646Z,12.00
2023-05-21T00:48:04.233Z,12.06
2023-05-21T00:48:36.935Z,12.00
2023-05-21T00:49:10.605Z,12.06
2023-05-21T00:49:43.163Z,12.06
2023-05-21T00:50:15.803Z,12.06
2023-05-21T00:50:50.348Z,12.06
2023-05-21T00:51:22.907Z,12.06
2023-05-21T00:51:55.673Z,12.06
2023-05-21T00:52:29.213Z,12.06
2023-05-21T00:53:02.002Z,12.06
2023-05-21T00:53:35.003Z,12.06
2023-05-21T00:54:09.945Z,12.06
2023-05-21T00:54:42.473Z,12.06
2023-05-21T00:55:15.393Z,12.06
2023-05-21T00:55:49.065Z,12.06
2023-05-21T00:56:22.924Z,12.06
2023-05-21T00:56:56.137Z,12.06
2023-05-21T00:57:29.765Z,12.06
2023-05-21T19:02:45.547Z,15.81
2023-05-21T19:03:18.056Z,15.81
2023-05-21T19:03:51.553Z,15.75
